sensor_id;sensor_type;location;lat;lon;timestamp;P1;durP1;ratioP1;P2;durP2;ratioP2
50739;SDS011;36704;52.524;17.580;2022-11-15T00:02:10;115.45;;;38.35;;
50739;SDS011;36704;52.524;17.580;2022-11-15T00:05:14;143.02;;;38.80;;
50739;SDS011;36704;52.524;17.580;2022-11-15T00:08:20;107.25;;;36.58;;
50739;SDS011;36704;52.524;17.580;2022-11-15T00:11:25;109.45;;;38.90;;
50739;SDS011;36704;52.524;17.580;2022-11-15T00:14:31;106.13;;;35.45;;
50739;SDS011;36704;52.524;17.580;2022-11-15T00:17:35;157.80;;;37.08;;
50739;SDS011;36704;52.524;17.580;2022-11-15T00:20:41;112.47;;;37.15;;
50739;SDS011;36704;52.524;17.580;2022-11-15T00:23:45;144.55;;;37.15;;
50739;SDS011;36704;52.524;17.580;2022-11-15T00:26:50;123.72;;;36.78;;
50739;SDS011;36704;52.524;17.580;2022-11-15T00:29:54;130.48;;;37.10;;
50739;SDS011;36704;52.524;17.580;2022-11-15T00:33:03;120.35;;;35.17;;
50739;SDS011;36704;52.524;17.580;2022-11-15T00:36:08;104.70;;;36.38;;
50739;SDS011;36704;52.524;17.580;2022-11-15T00:39:14;158.13;;;39.30;;
50739;SDS011;36704;52.524;17.580;2022-11-15T00:42:18;109.65;;;34.45;;
50739;SDS011;36704;52.524;17.580;2022-11-15T00:45:24;139.77;;;36.80;;
50739;SDS011;36704;52.524;17.580;2022-11-15T00:48:29;115.63;;;35.42;;
50739;SDS011;36704;52.524;17.580;2022-11-15T00:51:34;116.20;;;37.45;;
50739;SDS011;36704;52.524;17.580;2022-11-15T00:54:39;124.70;;;35.75;;
50739;SDS011;36704;52.524;17.580;2022-11-15T00:57:44;110.63;;;36.33;;
50739;SDS011;36704;52.524;17.580;2022-11-15T01:00:49;113.95;;;36.65;;
50739;SDS011;36704;52.524;17.580;2022-11-15T01:03:54;155.15;;;36.00;;
50739;SDS011;36704;52.524;17.580;2022-11-15T01:07:04;120.53;;;38.30;;
50739;SDS011;36704;52.524;17.580;2022-11-15T01:10:09;129.63;;;38.45;;
50739;SDS011;36704;52.524;17.580;2022-11-15T01:13:14;125.78;;;40.60;;
50739;SDS011;36704;52.524;17.580;2022-11-15T01:16:19;128.07;;;38.88;;
50739;SDS011;36704;52.524;17.580;2022-11-15T01:19:24;114.65;;;38.50;;
50739;SDS011;36704;52.524;17.580;2022-11-15T01:22:29;122.07;;;36.95;;
50739;SDS011;36704;52.524;17.580;2022-11-15T01:25:33;118.03;;;39.17;;
50739;SDS011;36704;52.524;17.580;2022-11-15T01:28:39;117.30;;;35.85;;
50739;SDS011;36704;52.524;17.580;2022-11-15T01:31:45;138.48;;;36.42;;
50739;SDS011;36704;52.524;17.580;2022-11-15T01:34:49;115.68;;;37.65;;
50739;SDS011;36704;52.524;17.580;2022-11-15T01:37:54;104.13;;;35.20;;
50739;SDS011;36704;52.524;17.580;2022-11-15T01:40:59;121.60;;;34.42;;
50739;SDS011;36704;52.524;17.580;2022-11-15T01:47:46;111.53;;;36.25;;
50739;SDS011;36704;52.524;17.580;2022-11-15T01:50:56;149.55;;;38.20;;
50739;SDS011;36704;52.524;17.580;2022-11-15T01:54:02;186.10;;;38.90;;
50739;SDS011;36704;52.524;17.580;2022-11-15T01:57:10;153.13;;;37.22;;
50739;SDS011;36704;52.524;17.580;2022-11-15T02:00:16;113.10;;;36.13;;
50739;SDS011;36704;52.524;17.580;2022-11-15T02:03:21;110.50;;;37.53;;
50739;SDS011;36704;52.524;17.580;2022-11-15T02:06:29;132.25;;;36.47;;
50739;SDS011;36704;52.524;17.580;2022-11-15T02:09:35;111.47;;;35.30;;
50739;SDS011;36704;52.524;17.580;2022-11-15T02:12:41;118.00;;;36.60;;
50739;SDS011;36704;52.524;17.580;2022-11-15T02:15:52;105.85;;;35.10;;
50739;SDS011;36704;52.524;17.580;2022-11-15T02:32:38;100.70;;;37.28;;
50739;SDS011;36704;52.524;17.580;2022-11-15T02:42:49;99.75;;;35.38;;
50739;SDS011;36704;52.524;17.580;2022-11-15T02:46:21;111.13;;;37.03;;
50739;SDS011;36704;52.524;17.580;2022-11-15T02:49:49;118.40;;;37.13;;
50739;SDS011;36704;52.524;17.580;2022-11-15T02:52:55;109.07;;;35.35;;
50739;SDS011;36704;52.524;17.580;2022-11-15T02:56:00;127.40;;;35.55;;
50739;SDS011;36704;52.524;17.580;2022-11-15T03:10:02;107.07;;;34.63;;
50739;SDS011;36704;52.524;17.580;2022-11-15T03:13:16;110.45;;;34.72;;
50739;SDS011;36704;52.524;17.580;2022-11-15T03:19:40;96.20;;;36.20;;
50739;SDS011;36704;52.524;17.580;2022-11-15T03:23:08;120.78;;;34.90;;
50739;SDS011;36704;52.524;17.580;2022-11-15T03:26:14;130.80;;;34.55;;
50739;SDS011;36704;52.524;17.580;2022-11-15T03:29:22;93.15;;;35.08;;
50739;SDS011;36704;52.524;17.580;2022-11-15T03:32:34;104.45;;;36.40;;
50739;SDS011;36704;52.524;17.580;2022-11-15T03:35:42;108.97;;;37.13;;
50739;SDS011;36704;52.524;17.580;2022-11-15T03:38:49;132.13;;;35.35;;
50739;SDS011;36704;52.524;17.580;2022-11-15T03:45:27;146.48;;;37.13;;
50739;SDS011;36704;52.524;17.580;2022-11-15T03:48:46;95.07;;;33.30;;
50739;SDS011;36704;52.524;17.580;2022-11-15T03:51:58;102.30;;;35.72;;
50739;SDS011;36704;52.524;17.580;2022-11-15T03:55:04;109.18;;;35.80;;
50739;SDS011;36704;52.524;17.580;2022-11-15T03:58:10;108.60;;;36.63;;
50739;SDS011;36704;52.524;17.580;2022-11-15T04:01:15;121.05;;;36.63;;
50739;SDS011;36704;52.524;17.580;2022-11-15T04:04:20;113.95;;;36.47;;
50739;SDS011;36704;52.524;17.580;2022-11-15T04:07:24;99.65;;;35.10;;
50739;SDS011;36704;52.524;17.580;2022-11-15T04:10:30;99.55;;;35.70;;
50739;SDS011;36704;52.524;17.580;2022-11-15T04:13:35;122.90;;;35.60;;
50739;SDS011;36704;52.524;17.580;2022-11-15T04:16:40;98.88;;;36.50;;
50739;SDS011;36704;52.524;17.580;2022-11-15T04:19:46;128.07;;;37.33;;
50739;SDS011;36704;52.524;17.580;2022-11-15T04:23:12;123.13;;;35.28;;
50739;SDS011;36704;52.524;17.580;2022-11-15T04:26:38;98.75;;;34.13;;
50739;SDS011;36704;52.524;17.580;2022-11-15T04:29:42;101.10;;;34.30;;
50739;SDS011;36704;52.524;17.580;2022-11-15T04:32:47;142.57;;;37.47;;
50739;SDS011;36704;52.524;17.580;2022-11-15T04:35:52;123.18;;;33.45;;
50739;SDS011;36704;52.524;17.580;2022-11-15T04:39:15;105.80;;;35.42;;
50739;SDS011;36704;52.524;17.580;2022-11-15T04:42:21;122.35;;;35.40;;
50739;SDS011;36704;52.524;17.580;2022-11-15T04:45:25;134.88;;;34.30;;
50739;SDS011;36704;52.524;17.580;2022-11-15T04:48:30;87.93;;;33.38;;
50739;SDS011;36704;52.524;17.580;2022-11-15T04:51:35;114.32;;;34.72;;
50739;SDS011;36704;52.524;17.580;2022-11-15T04:54:40;152.10;;;35.80;;
50739;SDS011;36704;52.524;17.580;2022-11-15T04:57:46;92.78;;;33.88;;
50739;SDS011;36704;52.524;17.580;2022-11-15T05:00:51;123.18;;;35.65;;
50739;SDS011;36704;52.524;17.580;2022-11-15T05:03:55;141.18;;;31.70;;
50739;SDS011;36704;52.524;17.580;2022-11-15T05:07:19;95.70;;;33.65;;
50739;SDS011;36704;52.524;17.580;2022-11-15T05:10:24;102.15;;;34.92;;
50739;SDS011;36704;52.524;17.580;2022-11-15T05:13:29;115.63;;;33.92;;
50739;SDS011;36704;52.524;17.580;2022-11-15T05:16:33;139.15;;;33.28;;
50739;SDS011;36704;52.524;17.580;2022-11-15T05:19:38;86.90;;;32.85;;
50739;SDS011;36704;52.524;17.580;2022-11-15T05:22:43;143.98;;;34.55;;
50739;SDS011;36704;52.524;17.580;2022-11-15T05:25:48;121.03;;;38.03;;
50739;SDS011;36704;52.524;17.580;2022-11-15T05:28:54;144.13;;;37.95;;
50739;SDS011;36704;52.524;17.580;2022-11-15T05:32:00;120.43;;;37.88;;
50739;SDS011;36704;52.524;17.580;2022-11-15T05:35:05;115.72;;;36.38;;
50739;SDS011;36704;52.524;17.580;2022-11-15T05:38:11;99.82;;;34.20;;
50739;SDS011;36704;52.524;17.580;2022-11-15T05:41:20;142.63;;;36.97;;
50739;SDS011;36704;52.524;17.580;2022-11-15T05:44:30;110.97;;;38.15;;
50739;SDS011;36704;52.524;17.580;2022-11-15T05:47:35;141.93;;;38.13;;
50739;SDS011;36704;52.524;17.580;2022-11-15T05:50:42;124.00;;;34.42;;
50739;SDS011;36704;52.524;17.580;2022-11-15T05:53:48;125.25;;;37.33;;
50739;SDS011;36704;52.524;17.580;2022-11-15T05:56:54;102.45;;;33.92;;
50739;SDS011;36704;52.524;17.580;2022-11-15T05:59:59;117.60;;;35.60;;
50739;SDS011;36704;52.524;17.580;2022-11-15T06:03:04;131.23;;;37.80;;
50739;SDS011;36704;52.524;17.580;2022-11-15T06:06:09;157.07;;;39.05;;
50739;SDS011;36704;52.524;17.580;2022-11-15T06:09:19;189.30;;;43.45;;
50739;SDS011;36704;52.524;17.580;2022-11-15T06:12:24;115.05;;;41.45;;
50739;SDS011;36704;52.524;17.580;2022-11-15T06:15:29;133.82;;;33.08;;
50739;SDS011;36704;52.524;17.580;2022-11-15T06:18:34;164.43;;;35.38;;
50739;SDS011;36704;52.524;17.580;2022-11-15T06:21:40;174.90;;;35.63;;
50739;SDS011;36704;52.524;17.580;2022-11-15T06:24:44;150.73;;;38.42;;
50739;SDS011;36704;52.524;17.580;2022-11-15T06:27:52;145.43;;;37.47;;
50739;SDS011;36704;52.524;17.580;2022-11-15T06:31:05;108.28;;;32.17;;
50739;SDS011;36704;52.524;17.580;2022-11-15T06:34:11;125.15;;;36.50;;
50739;SDS011;36704;52.524;17.580;2022-11-15T06:37:15;141.23;;;34.85;;
50739;SDS011;36704;52.524;17.580;2022-11-15T06:40:20;121.68;;;33.85;;
50739;SDS011;36704;52.524;17.580;2022-11-15T06:43:25;151.18;;;35.50;;
50739;SDS011;36704;52.524;17.580;2022-11-15T06:46:30;117.70;;;32.08;;
50739;SDS011;36704;52.524;17.580;2022-11-15T06:49:34;111.43;;;35.50;;
50739;SDS011;36704;52.524;17.580;2022-11-15T06:52:39;123.63;;;37.28;;
50739;SDS011;36704;52.524;17.580;2022-11-15T06:55:44;105.15;;;37.17;;
50739;SDS011;36704;52.524;17.580;2022-11-15T06:58:49;109.30;;;34.30;;
50739;SDS011;36704;52.524;17.580;2022-11-15T07:01:54;154.40;;;36.10;;
50739;SDS011;36704;52.524;17.580;2022-11-15T07:04:59;138.40;;;35.05;;
50739;SDS011;36704;52.524;17.580;2022-11-15T07:08:04;107.78;;;33.65;;
50739;SDS011;36704;52.524;17.580;2022-11-15T07:11:09;123.15;;;33.33;;
50739;SDS011;36704;52.524;17.580;2022-11-15T07:14:13;112.80;;;32.67;;
50739;SDS011;36704;52.524;17.580;2022-11-15T07:17:18;99.13;;;31.55;;
50739;SDS011;36704;52.524;17.580;2022-11-15T07:20:23;109.95;;;34.40;;
50739;SDS011;36704;52.524;17.580;2022-11-15T07:23:28;101.93;;;32.40;;
50739;SDS011;36704;52.524;17.580;2022-11-15T07:26:33;111.57;;;34.95;;
50739;SDS011;36704;52.524;17.580;2022-11-15T07:29:38;114.40;;;35.95;;
50739;SDS011;36704;52.524;17.580;2022-11-15T07:32:43;124.88;;;33.55;;
50739;SDS011;36704;52.524;17.580;2022-11-15T07:35:48;109.03;;;30.83;;
50739;SDS011;36704;52.524;17.580;2022-11-15T07:38:52;100.32;;;30.75;;
50739;SDS011;36704;52.524;17.580;2022-11-15T07:41:57;79.93;;;30.50;;
50739;SDS011;36704;52.524;17.580;2022-11-15T07:45:23;118.18;;;31.15;;
50739;SDS011;36704;52.524;17.580;2022-11-15T07:48:30;84.45;;;30.35;;
50739;SDS011;36704;52.524;17.580;2022-11-15T07:51:47;110.05;;;33.08;;
50739;SDS011;36704;52.524;17.580;2022-11-15T07:54:52;86.97;;;31.52;;
50739;SDS011;36704;52.524;17.580;2022-11-15T07:58:01;108.68;;;30.77;;
50739;SDS011;36704;52.524;17.580;2022-11-15T08:01:09;91.53;;;30.70;;
50739;SDS011;36704;52.524;17.580;2022-11-15T08:04:14;90.93;;;29.67;;
50739;SDS011;36704;52.524;17.580;2022-11-15T08:07:19;122.55;;;30.13;;
50739;SDS011;36704;52.524;17.580;2022-11-15T08:10:24;102.22;;;32.08;;
50739;SDS011;36704;52.524;17.580;2022-11-15T08:13:30;82.70;;;32.78;;
50739;SDS011;36704;52.524;17.580;2022-11-15T08:16:36;86.57;;;32.35;;
50739;SDS011;36704;52.524;17.580;2022-11-15T08:19:41;84.97;;;31.85;;
50739;SDS011;36704;52.524;17.580;2022-11-15T08:22:45;88.60;;;30.25;;
50739;SDS011;36704;52.524;17.580;2022-11-15T08:25:51;94.07;;;32.63;;
50739;SDS011;36704;52.524;17.580;2022-11-15T08:33:22;101.95;;;40.03;;
50739;SDS011;36704;52.524;17.580;2022-11-15T08:36:27;75.00;;;32.65;;
50739;SDS011;36704;52.524;17.580;2022-11-15T08:39:45;74.88;;;29.95;;
50739;SDS011;36704;52.524;17.580;2022-11-15T08:42:49;67.82;;;31.30;;
50739;SDS011;36704;52.524;17.580;2022-11-15T08:45:57;89.57;;;38.20;;
50739;SDS011;36704;52.524;17.580;2022-11-15T08:49:01;87.55;;;40.10;;
50739;SDS011;36704;52.524;17.580;2022-11-15T08:52:06;97.03;;;38.17;;
50739;SDS011;36704;52.524;17.580;2022-11-15T08:55:11;87.65;;;34.65;;
50739;SDS011;36704;52.524;17.580;2022-11-15T08:58:16;88.28;;;34.55;;
50739;SDS011;36704;52.524;17.580;2022-11-15T09:01:20;81.60;;;35.08;;
50739;SDS011;36704;52.524;17.580;2022-11-15T09:04:26;110.25;;;42.88;;
50739;SDS011;36704;52.524;17.580;2022-11-15T09:07:30;94.50;;;29.88;;
50739;SDS011;36704;52.524;17.580;2022-11-15T09:10:36;69.93;;;28.77;;
50739;SDS011;36704;52.524;17.580;2022-11-15T09:13:41;69.80;;;28.15;;
50739;SDS011;36704;52.524;17.580;2022-11-15T09:16:46;78.38;;;28.40;;
50739;SDS011;36704;52.524;17.580;2022-11-15T09:19:50;77.85;;;28.85;;
50739;SDS011;36704;52.524;17.580;2022-11-15T09:22:58;74.30;;;30.05;;
50739;SDS011;36704;52.524;17.580;2022-11-15T09:26:05;83.90;;;28.48;;
50739;SDS011;36704;52.524;17.580;2022-11-15T09:29:11;75.40;;;33.05;;
50739;SDS011;36704;52.524;17.580;2022-11-15T09:32:15;74.30;;;29.23;;
50739;SDS011;36704;52.524;17.580;2022-11-15T09:35:20;95.55;;;27.20;;
50739;SDS011;36704;52.524;17.580;2022-11-15T09:38:25;64.43;;;28.23;;
50739;SDS011;36704;52.524;17.580;2022-11-15T09:52:06;97.82;;;30.45;;
50739;SDS011;36704;52.524;17.580;2022-11-15T09:54:53;69.15;;;29.90;;
50739;SDS011;36704;52.524;17.580;2022-11-15T10:00:47;120.28;;;34.60;;
50739;SDS011;36704;52.524;17.580;2022-11-15T10:03:35;64.72;;;29.35;;
50739;SDS011;36704;52.524;17.580;2022-11-15T10:06:23;69.75;;;29.80;;
50739;SDS011;36704;52.524;17.580;2022-11-15T10:09:15;82.30;;;30.65;;
50739;SDS011;36704;52.524;17.580;2022-11-15T10:12:22;69.65;;;29.00;;
50739;SDS011;36704;52.524;17.580;2022-11-15T10:15:11;89.32;;;31.10;;
50739;SDS011;36704;52.524;17.580;2022-11-15T10:20:59;76.15;;;33.22;;
50739;SDS011;36704;52.524;17.580;2022-11-15T10:24:01;82.75;;;32.33;;
50739;SDS011;36704;52.524;17.580;2022-11-15T10:26:47;66.68;;;29.05;;
50739;SDS011;36704;52.524;17.580;2022-11-15T10:29:33;68.93;;;27.98;;
50739;SDS011;36704;52.524;17.580;2022-11-15T10:32:19;76.38;;;29.33;;
50739;SDS011;36704;52.524;17.580;2022-11-15T10:35:24;69.60;;;28.33;;
50739;SDS011;36704;52.524;17.580;2022-11-15T10:38:12;73.90;;;33.17;;
50739;SDS011;36704;52.524;17.580;2022-11-15T10:41:06;378.73;;;138.05;;
50739;SDS011;36704;52.524;17.580;2022-11-15T10:49:58;76.88;;;34.67;;
50739;SDS011;36704;52.524;17.580;2022-11-15T10:52:50;63.03;;;32.10;;
50739;SDS011;36704;52.524;17.580;2022-11-15T10:55:46;71.18;;;33.10;;
50739;SDS011;36704;52.524;17.580;2022-11-15T11:01:27;69.72;;;32.53;;
50739;SDS011;36704;52.524;17.580;2022-11-15T11:04:17;67.28;;;34.92;;
50739;SDS011;36704;52.524;17.580;2022-11-15T11:07:08;77.40;;;35.05;;
50739;SDS011;36704;52.524;17.580;2022-11-15T11:10:20;59.85;;;29.38;;
50739;SDS011;36704;52.524;17.580;2022-11-15T11:13:28;75.68;;;29.20;;
50739;SDS011;36704;52.524;17.580;2022-11-15T11:34:13;64.22;;;29.75;;
50739;SDS011;36704;52.524;17.580;2022-11-15T11:52:21;78.80;;;31.45;;
50739;SDS011;36704;52.524;17.580;2022-11-15T11:55:20;72.55;;;31.95;;
50739;SDS011;36704;52.524;17.580;2022-11-15T12:01:26;71.60;;;32.15;;
50739;SDS011;36704;52.524;17.580;2022-11-15T12:07:25;78.45;;;35.42;;
50739;SDS011;36704;52.524;17.580;2022-11-15T12:10:20;70.97;;;33.53;;
50739;SDS011;36704;52.524;17.580;2022-11-15T12:13:10;87.28;;;33.15;;
50739;SDS011;36704;52.524;17.580;2022-11-15T12:19:09;71.82;;;32.30;;
50739;SDS011;36704;52.524;17.580;2022-11-15T12:25:02;106.40;;;47.80;;
50739;SDS011;36704;52.524;17.580;2022-11-15T12:27:56;110.97;;;43.80;;
50739;SDS011;36704;52.524;17.580;2022-11-15T12:30:50;149.07;;;48.78;;
50739;SDS011;36704;52.524;17.580;2022-11-15T12:33:43;137.25;;;48.78;;
50739;SDS011;36704;52.524;17.580;2022-11-15T12:36:30;126.18;;;40.58;;
50739;SDS011;36704;52.524;17.580;2022-11-15T12:39:20;109.07;;;40.85;;
50739;SDS011;36704;52.524;17.580;2022-11-15T12:43:03;106.28;;;39.40;;
50739;SDS011;36704;52.524;17.580;2022-11-15T12:46:01;123.28;;;44.08;;
50739;SDS011;36704;52.524;17.580;2022-11-15T12:57:28;110.00;;;38.65;;
50739;SDS011;36704;52.524;17.580;2022-11-15T13:03:23;102.13;;;41.72;;
50739;SDS011;36704;52.524;17.580;2022-11-15T13:06:33;96.22;;;37.08;;
50739;SDS011;36704;52.524;17.580;2022-11-15T13:17:57;93.63;;;37.30;;
50739;SDS011;36704;52.524;17.580;2022-11-15T13:20:44;95.53;;;39.70;;
50739;SDS011;36704;52.524;17.580;2022-11-15T13:23:30;109.15;;;42.80;;
50739;SDS011;36704;52.524;17.580;2022-11-15T13:26:16;107.07;;;41.63;;
50739;SDS011;36704;52.524;17.580;2022-11-15T13:29:01;114.28;;;43.17;;
50739;SDS011;36704;52.524;17.580;2022-11-15T13:31:47;110.82;;;44.67;;
50739;SDS011;36704;52.524;17.580;2022-11-15T13:34:34;128.27;;;48.50;;
50739;SDS011;36704;52.524;17.580;2022-11-15T13:37:36;110.72;;;46.67;;
50739;SDS011;36704;52.524;17.580;2022-11-15T13:40:23;111.97;;;47.13;;
50739;SDS011;36704;52.524;17.580;2022-11-15T13:46:15;104.95;;;43.92;;
50739;SDS011;36704;52.524;17.580;2022-11-15T13:49:14;105.43;;;41.17;;
50739;SDS011;36704;52.524;17.580;2022-11-15T13:52:01;96.60;;;42.70;;
50739;SDS011;36704;52.524;17.580;2022-11-15T13:55:05;104.60;;;42.75;;
50739;SDS011;36704;52.524;17.580;2022-11-15T13:57:59;99.43;;;40.90;;
50739;SDS011;36704;52.524;17.580;2022-11-15T14:00:59;139.05;;;48.50;;
50739;SDS011;36704;52.524;17.580;2022-11-15T14:03:51;108.78;;;44.10;;
50739;SDS011;36704;52.524;17.580;2022-11-15T14:06:44;118.13;;;47.15;;
50739;SDS011;36704;52.524;17.580;2022-11-15T14:09:32;122.75;;;46.75;;
50739;SDS011;36704;52.524;17.580;2022-11-15T14:15:29;127.07;;;43.22;;
50739;SDS011;36704;52.524;17.580;2022-11-15T14:22:07;119.50;;;39.85;;
50739;SDS011;36704;52.524;17.580;2022-11-15T14:25:15;134.80;;;43.75;;
50739;SDS011;36704;52.524;17.580;2022-11-15T14:31:06;159.40;;;55.10;;
50739;SDS011;36704;52.524;17.580;2022-11-15T14:33:56;141.45;;;40.53;;
50739;SDS011;36704;52.524;17.580;2022-11-15T14:36:42;159.20;;;44.75;;
50739;SDS011;36704;52.524;17.580;2022-11-15T14:39:28;206.02;;;54.08;;
50739;SDS011;36704;52.524;17.580;2022-11-15T14:42:14;194.77;;;44.95;;
50739;SDS011;36704;52.524;17.580;2022-11-15T14:45:00;305.13;;;77.72;;
50739;SDS011;36704;52.524;17.580;2022-11-15T14:47:46;160.32;;;48.40;;
50739;SDS011;36704;52.524;17.580;2022-11-15T14:50:32;129.68;;;40.67;;
50739;SDS011;36704;52.524;17.580;2022-11-15T14:53:18;122.70;;;42.25;;
50739;SDS011;36704;52.524;17.580;2022-11-15T14:56:05;152.73;;;46.38;;
50739;SDS011;36704;52.524;17.580;2022-11-15T14:58:51;204.23;;;70.32;;
50739;SDS011;36704;52.524;17.580;2022-11-15T15:01:36;143.48;;;44.05;;
50739;SDS011;36704;52.524;17.580;2022-11-15T15:04:22;167.15;;;43.28;;
50739;SDS011;36704;52.524;17.580;2022-11-15T15:07:08;253.05;;;50.10;;
50739;SDS011;36704;52.524;17.580;2022-11-15T15:09:54;159.15;;;42.85;;
50739;SDS011;36704;52.524;17.580;2022-11-15T15:12:55;119.07;;;41.67;;
50739;SDS011;36704;52.524;17.580;2022-11-15T15:15:42;181.27;;;44.35;;
50739;SDS011;36704;52.524;17.580;2022-11-15T15:18:27;164.35;;;44.10;;
50739;SDS011;36704;52.524;17.580;2022-11-15T15:21:24;157.90;;;52.75;;
50739;SDS011;36704;52.524;17.580;2022-11-15T15:24:14;179.93;;;63.45;;
50739;SDS011;36704;52.524;17.580;2022-11-15T15:27:00;230.80;;;65.20;;
50739;SDS011;36704;52.524;17.580;2022-11-15T15:29:46;257.38;;;92.05;;
50739;SDS011;36704;52.524;17.580;2022-11-15T15:32:32;309.38;;;75.38;;
50739;SDS011;36704;52.524;17.580;2022-11-15T15:35:18;254.82;;;77.65;;
50739;SDS011;36704;52.524;17.580;2022-11-15T15:38:04;264.85;;;82.93;;
50739;SDS011;36704;52.524;17.580;2022-11-15T15:40:50;257.85;;;87.05;;
50739;SDS011;36704;52.524;17.580;2022-11-15T15:43:36;207.57;;;78.25;;
50739;SDS011;36704;52.524;17.580;2022-11-15T15:46:22;156.82;;;56.60;;
50739;SDS011;36704;52.524;17.580;2022-11-15T15:49:09;142.13;;;48.30;;
50739;SDS011;36704;52.524;17.580;2022-11-15T15:51:55;111.93;;;40.80;;
50739;SDS011;36704;52.524;17.580;2022-11-15T15:54:41;136.13;;;51.53;;
50739;SDS011;36704;52.524;17.580;2022-11-15T15:57:26;167.52;;;48.45;;
50739;SDS011;36704;52.524;17.580;2022-11-15T16:00:13;133.23;;;42.20;;
50739;SDS011;36704;52.524;17.580;2022-11-15T16:02:59;113.93;;;43.30;;
50739;SDS011;36704;52.524;17.580;2022-11-15T16:05:45;133.82;;;50.35;;
50739;SDS011;36704;52.524;17.580;2022-11-15T16:08:37;146.93;;;47.58;;
50739;SDS011;36704;52.524;17.580;2022-11-15T16:11:45;147.13;;;36.67;;
50739;SDS011;36704;52.524;17.580;2022-11-15T16:14:31;132.68;;;36.40;;
50739;SDS011;36704;52.524;17.580;2022-11-15T16:17:18;108.72;;;42.05;;
50739;SDS011;36704;52.524;17.580;2022-11-15T16:20:05;142.15;;;47.25;;
50739;SDS011;36704;52.524;17.580;2022-11-15T16:22:52;177.80;;;44.70;;
50739;SDS011;36704;52.524;17.580;2022-11-15T16:28:29;161.98;;;39.33;;
50739;SDS011;36704;52.524;17.580;2022-11-15T16:31:17;156.07;;;40.67;;
50739;SDS011;36704;52.524;17.580;2022-11-15T16:34:05;163.52;;;49.13;;
50739;SDS011;36704;52.524;17.580;2022-11-15T16:36:51;195.07;;;55.65;;
50739;SDS011;36704;52.524;17.580;2022-11-15T16:39:38;156.07;;;52.70;;
50739;SDS011;36704;52.524;17.580;2022-11-15T16:42:23;137.82;;;46.85;;
50739;SDS011;36704;52.524;17.580;2022-11-15T16:45:12;96.28;;;31.90;;
50739;SDS011;36704;52.524;17.580;2022-11-15T16:47:58;108.57;;;34.95;;
50739;SDS011;36704;52.524;17.580;2022-11-15T16:50:44;148.13;;;44.83;;
50739;SDS011;36704;52.524;17.580;2022-11-15T16:53:30;136.52;;;36.60;;
50739;SDS011;36704;52.524;17.580;2022-11-15T16:56:18;148.57;;;38.67;;
50739;SDS011;36704;52.524;17.580;2022-11-15T16:59:15;159.05;;;42.53;;
50739;SDS011;36704;52.524;17.580;2022-11-15T17:02:03;103.53;;;36.55;;
50739;SDS011;36704;52.524;17.580;2022-11-15T17:04:48;218.93;;;63.25;;
50739;SDS011;36704;52.524;17.580;2022-11-15T17:07:34;149.85;;;44.80;;
50739;SDS011;36704;52.524;17.580;2022-11-15T17:10:20;160.65;;;34.63;;
50739;SDS011;36704;52.524;17.580;2022-11-15T17:13:09;145.68;;;35.45;;
50739;SDS011;36704;52.524;17.580;2022-11-15T17:16:03;147.38;;;44.80;;
50739;SDS011;36704;52.524;17.580;2022-11-15T17:18:52;138.40;;;38.75;;
50739;SDS011;36704;52.524;17.580;2022-11-15T17:21:38;173.50;;;40.17;;
50739;SDS011;36704;52.524;17.580;2022-11-15T17:24:24;197.75;;;55.92;;
50739;SDS011;36704;52.524;17.580;2022-11-15T17:27:09;155.35;;;35.55;;
50739;SDS011;36704;52.524;17.580;2022-11-15T17:29:55;190.75;;;47.47;;
50739;SDS011;36704;52.524;17.580;2022-11-15T17:32:41;159.45;;;37.90;;
50739;SDS011;36704;52.524;17.580;2022-11-15T17:35:27;149.55;;;50.22;;
50739;SDS011;36704;52.524;17.580;2022-11-15T17:38:13;205.40;;;52.78;;
50739;SDS011;36704;52.524;17.580;2022-11-15T17:41:03;147.88;;;38.60;;
50739;SDS011;36704;52.524;17.580;2022-11-15T17:43:50;184.82;;;36.95;;
50739;SDS011;36704;52.524;17.580;2022-11-15T17:46:36;165.10;;;35.28;;
50739;SDS011;36704;52.524;17.580;2022-11-15T17:49:22;141.63;;;40.00;;
50739;SDS011;36704;52.524;17.580;2022-11-15T17:52:08;180.32;;;43.38;;
50739;SDS011;36704;52.524;17.580;2022-11-15T17:54:54;165.07;;;41.60;;
50739;SDS011;36704;52.524;17.580;2022-11-15T17:57:40;151.75;;;41.47;;
50739;SDS011;36704;52.524;17.580;2022-11-15T18:00:28;173.80;;;40.47;;
50739;SDS011;36704;52.524;17.580;2022-11-15T18:03:14;200.45;;;46.25;;
50739;SDS011;36704;52.524;17.580;2022-11-15T18:05:59;159.88;;;45.15;;
50739;SDS011;36704;52.524;17.580;2022-11-15T18:08:46;180.35;;;46.85;;
50739;SDS011;36704;52.524;17.580;2022-11-15T18:11:35;185.52;;;45.25;;
50739;SDS011;36704;52.524;17.580;2022-11-15T18:14:23;159.85;;;39.40;;
50739;SDS011;36704;52.524;17.580;2022-11-15T18:17:10;152.27;;;38.15;;
50739;SDS011;36704;52.524;17.580;2022-11-15T18:19:56;145.48;;;38.80;;
50739;SDS011;36704;52.524;17.580;2022-11-15T18:22:41;186.77;;;47.65;;
50739;SDS011;36704;52.524;17.580;2022-11-15T18:25:28;193.18;;;55.40;;
50739;SDS011;36704;52.524;17.580;2022-11-15T18:28:13;167.20;;;51.78;;
50739;SDS011;36704;52.524;17.580;2022-11-15T18:30:59;138.38;;;37.45;;
50739;SDS011;36704;52.524;17.580;2022-11-15T18:33:46;183.20;;;40.55;;
50739;SDS011;36704;52.524;17.580;2022-11-15T18:36:33;140.82;;;38.45;;
50739;SDS011;36704;52.524;17.580;2022-11-15T18:39:18;165.18;;;40.78;;
50739;SDS011;36704;52.524;17.580;2022-11-15T18:42:04;151.57;;;40.90;;
50739;SDS011;36704;52.524;17.580;2022-11-15T18:44:50;146.95;;;41.55;;
50739;SDS011;36704;52.524;17.580;2022-11-15T18:47:36;172.93;;;47.95;;
50739;SDS011;36704;52.524;17.580;2022-11-15T18:50:22;157.15;;;46.38;;
50739;SDS011;36704;52.524;17.580;2022-11-15T18:53:08;180.32;;;43.72;;
50739;SDS011;36704;52.524;17.580;2022-11-15T18:55:58;164.27;;;40.63;;
50739;SDS011;36704;52.524;17.580;2022-11-15T18:58:48;145.23;;;41.58;;
50739;SDS011;36704;52.524;17.580;2022-11-15T19:01:37;160.68;;;40.85;;
50739;SDS011;36704;52.524;17.580;2022-11-15T19:04:24;173.07;;;38.45;;
50739;SDS011;36704;52.524;17.580;2022-11-15T19:07:09;136.73;;;39.05;;
50739;SDS011;36704;52.524;17.580;2022-11-15T19:09:56;150.00;;;41.70;;
50739;SDS011;36704;52.524;17.580;2022-11-15T19:12:41;139.35;;;42.42;;
50739;SDS011;36704;52.524;17.580;2022-11-15T19:15:27;192.18;;;60.83;;
50739;SDS011;36704;52.524;17.580;2022-11-15T19:18:13;147.55;;;49.55;;
50739;SDS011;36704;52.524;17.580;2022-11-15T19:21:03;124.13;;;40.70;;
50739;SDS011;36704;52.524;17.580;2022-11-15T19:23:50;131.43;;;36.65;;
50739;SDS011;36704;52.524;17.580;2022-11-15T19:26:40;148.02;;;50.83;;
50739;SDS011;36704;52.524;17.580;2022-11-15T19:29:25;129.18;;;39.63;;